Kitty C — 2EIQ6 — position and weather

sailwx.info

Track history (hours):
 
Tides and Currents Weather Stations Pressure Air Temp Water Temp Dewpoint Dewpoint Depression Visibility Wind Speed Wind Dir Waves Ship Positions

Kitty C

Last reported at 2016-Oct-01 20:17 UTC. Time now 2016-Oct-01 22:25 UTC.
Position N 38°51' E 009°31'.

Length 106 m; draft 4.4 m.

Type: Cargo ship. MMSI: 235085464.

Date/timePositionNaut miles runAvg speedWind from/ knotsBaromVisibWave heightAir tempDewpointWater temp
2016-Oct-01 20:17N 38°51' E 009°31'28210.5
2016-Sep-30 17:33N 43°31' E 010°13'6 6.0
2016-Sep-30 16:33N 43°34' E 010°19'0 0.0
2016-Sep-30 14:33N 43°34' E 010°19'0 0.0
2016-Sep-30 13:30N 43°34' E 010°19'0 0.0
2016-Sep-30 10:33N 43°34' E 010°19'0 0.0
2016-Sep-30 08:30N 43°34' E 010°19'0 0.0
2016-Sep-30 06:30N 43°34' E 010°19'0 0.0
2016-Sep-30 03:33N 43°34' E 010°19'0 0.0
2016-Sep-30 02:27N 43°34' E 010°19'0 0.0
2016-Sep-29 23:33N 43°34' E 010°19'0 0.0
2016-Sep-29 21:33N 43°34' E 010°19'0 0.0
2016-Sep-29 20:33N 43°34' E 010°19'0 0.0
2016-Sep-29 19:33N 43°34' E 010°19'0 0.0
2016-Sep-29 16:33N 43°34' E 010°19'0 0.0
2016-Sep-29 15:33N 43°34' E 010°19'0 0.0
2016-Sep-29 14:30N 43°34' E 010°19'0 0.0
2016-Sep-29 13:33N 43°34' E 010°19'0 0.0
2016-Sep-29 08:33N 43°34' E 010°19'0 0.0
2016-Sep-29 07:33N 43°34' E 010°19'4 0.5
2016-Sep-29 00:33N 43°31' E 010°17'0 0.0
2016-Sep-28 21:33N 43°31' E 010°17'0 0.0
2016-Sep-28 19:33N 43°31' E 010°17'28 9.3
2016-Sep-28 16:33N 43°15' E 009°45'1110.7
2016-Sep-28 15:33N 43°10' E 009°32'39610.2
2016-Sep-27 00:33N 38°54' E 002°51'  
2016-Sep-24 02:31N 36°42' W 009°27'7110.2
2016-Sep-23 19:33N 37°50' W 009°51'2210.9
2016-Sep-23 17:33N 38°11' W 009°57'1110.7
2016-Sep-23 16:33N 38°22' W 010°00'1110.8
2016-Sep-23 15:33N 38°33' W 010°03'2310.9
2016-Sep-23 13:29N 38°55' W 010°05'  
Track history (hours):
 
Tides and Currents Weather Stations Pressure Air Temp Water Temp Dewpoint Dewpoint Depression Visibility Wind Speed Wind Dir Waves Ship Positions

Kitty C

Last reported at 2016-Oct-01 20:17 UTC. Time now 2016-Oct-01 22:25 UTC.
Position N 38°51' E 009°31'.

Length 106 m; draft 4.4 m.

Type: Cargo ship. MMSI: 235085464.

Date/timePositionNaut miles runAvg speedWind from/ knotsBaromVisibWave heightAir tempDewpointWater temp
2016-Oct-01 20:17N 38°51' E 009°31'28210.5
2016-Sep-30 17:33N 43°31' E 010°13'6 6.0
2016-Sep-30 16:33N 43°34' E 010°19'0 0.0
2016-Sep-30 14:33N 43°34' E 010°19'0 0.0
2016-Sep-30 13:30N 43°34' E 010°19'0 0.0
2016-Sep-30 10:33N 43°34' E 010°19'0 0.0
2016-Sep-30 08:30N 43°34' E 010°19'0 0.0
2016-Sep-30 06:30N 43°34' E 010°19'0 0.0
2016-Sep-30 03:33N 43°34' E 010°19'0 0.0
2016-Sep-30 02:27N 43°34' E 010°19'0 0.0
2016-Sep-29 23:33N 43°34' E 010°19'0 0.0
2016-Sep-29 21:33N 43°34' E 010°19'0 0.0
2016-Sep-29 20:33N 43°34' E 010°19'0 0.0
2016-Sep-29 19:33N 43°34' E 010°19'0 0.0
2016-Sep-29 16:33N 43°34' E 010°19'0 0.0
2016-Sep-29 15:33N 43°34' E 010°19'0 0.0
2016-Sep-29 14:30N 43°34' E 010°19'0 0.0
2016-Sep-29 13:33N 43°34' E 010°19'0 0.0
2016-Sep-29 08:33N 43°34' E 010°19'0 0.0
2016-Sep-29 07:33N 43°34' E 010°19'4 0.5
2016-Sep-29 00:33N 43°31' E 010°17'0 0.0
2016-Sep-28 21:33N 43°31' E 010°17'0 0.0
2016-Sep-28 19:33N 43°31' E 010°17'28 9.3
2016-Sep-28 16:33N 43°15' E 009°45'1110.7
2016-Sep-28 15:33N 43°10' E 009°32'39610.2
2016-Sep-27 00:33N 38°54' E 002°51'  
2016-Sep-24 02:31N 36°42' W 009°27'7110.2
2016-Sep-23 19:33N 37°50' W 009°51'2210.9
2016-Sep-23 17:33N 38°11' W 009°57'1110.7
2016-Sep-23 16:33N 38°22' W 010°00'1110.8
2016-Sep-23 15:33N 38°33' W 010°03'2310.9
2016-Sep-23 13:29N 38°55' W 010°05'  

Dump ship's entire track history